createdAt,value
2023-04-24T00:01:10.028Z,90.90
2023-04-24T00:03:38.136Z,90.80
2023-04-24T00:06:06.361Z,90.80
2023-04-24T00:08:33.387Z,90.90
2023-04-24T00:11:00.222Z,90.80
2023-04-24T00:13:27.119Z,90.80
2023-04-24T00:15:53.918Z,90.80
2023-04-24T00:18:20.784Z,90.80
2023-04-24T00:20:47.705Z,90.70
2023-04-24T00:23:14.709Z,90.70
2023-04-24T00:25:41.554Z,90.80
2023-04-24T00:28:08.354Z,90.80
2023-04-24T00:30:35.282Z,90.80
2023-04-24T00:33:02.140Z,90.80
2023-04-24T00:35:28.946Z,90.80
2023-04-24T00:37:55.848Z,90.80
2023-04-24T00:40:22.758Z,90.80
2023-04-24T00:42:49.967Z,90.80
2023-04-24T00:45:17.025Z,90.80
2023-04-24T00:47:44.039Z,90.80
2023-04-24T00:50:12.343Z,90.80
2023-04-24T00:52:41.909Z,90.90
2023-04-24T00:55:09.496Z,90.90
2023-04-24T00:57:36.783Z,90.90
2023-04-24T01:00:06.834Z,91.00
2023-04-24T01:02:35.783Z,91.00
2023-04-24T01:05:03.034Z,90.90
2023-04-24T01:07:30.341Z,90.90
2023-04-24T01:09:57.365Z,91.00
2023-04-24T01:12:24.276Z,91.00
2023-04-24T01:14:51.084Z,91.10
2023-04-24T01:17:17.964Z,91.20
2023-04-24T01:19:46.087Z,91.30
2023-04-24T01:22:15.678Z,91.30
2023-04-24T01:24:43.292Z,91.40
2023-04-24T01:27:11.416Z,91.40
2023-04-24T01:29:38.317Z,91.50
2023-04-24T01:32:06.196Z,91.40
2023-04-24T01:34:33.481Z,91.50
2023-04-24T01:37:00.812Z,91.50
2023-04-24T01:39:29.536Z,91.40
2023-04-24T01:41:57.260Z,91.40
2023-04-24T01:44:24.689Z,91.40
2023-04-24T01:46:51.812Z,91.40
2023-04-24T01:49:18.921Z,91.40
2023-04-24T01:51:46.320Z,91.20
2023-04-24T01:54:13.577Z,91.30
2023-04-24T01:56:44.551Z,91.20
2023-04-24T01:59:15.893Z,91.30
2023-04-24T02:01:42.738Z,91.20
2023-04-24T02:04:10.181Z,91.30
2023-04-24T02:06:37.648Z,91.20
2023-04-24T02:09:04.612Z,91.20
2023-04-24T02:11:31.606Z,91.20
2023-04-24T02:13:58.662Z,91.20
2023-04-24T02:16:26.024Z,91.10
2023-04-24T02:18:52.974Z,91.00
2023-04-24T02:21:19.808Z,90.70
2023-04-24T02:23:46.676Z,90.40
2023-04-24T02:26:13.579Z,90.40
2023-04-24T02:28:40.695Z,90.20
2023-04-24T02:31:07.725Z,90.20
2023-04-24T02:33:34.829Z,90.30
2023-04-24T02:36:01.854Z,90.30
2023-04-24T02:38:28.667Z,90.20
2023-04-24T02:40:55.516Z,90.30
2023-04-24T02:43:22.422Z,90.20
2023-04-24T02:45:49.964Z,90.30
2023-04-24T02:48:16.891Z,90.20
2023-04-24T02:50:43.618Z,90.20
2023-04-24T02:53:10.358Z,90.30
2023-04-24T02:55:37.149Z,90.30
2023-04-24T02:58:03.958Z,90.40
2023-04-24T03:00:31.001Z,90.40
2023-04-24T03:02:58.044Z,90.30
2023-04-24T03:05:24.924Z,90.10
2023-04-24T03:07:53.642Z,90.20
2023-04-24T03:10:20.717Z,90.00
2023-04-24T03:12:47.540Z,89.90
2023-04-24T03:15:14.385Z,89.70
2023-04-24T03:17:41.282Z,89.80
2023-04-24T03:20:11.838Z,89.90
2023-04-24T03:22:38.702Z,90.00
2023-04-24T03:25:06.299Z,90.00
2023-04-24T03:27:33.171Z,90.00
2023-04-24T03:30:00.043Z,90.00
2023-04-24T03:32:26.950Z,90.00
2023-04-24T03:34:54.326Z,90.10
2023-04-24T03:37:21.154Z,90.10
2023-04-24T03:39:48.006Z,90.10
2023-04-24T03:42:14.784Z,90.20
2023-04-24T03:44:41.581Z,90.10
2023-04-24T03:47:08.376Z,90.30
2023-04-24T03:49:35.224Z,90.20
2023-04-24T03:52:02.027Z,90.30
2023-04-24T03:54:28.911Z,90.30
2023-04-24T03:56:55.679Z,90.30
2023-04-24T03:59:22.481Z,89.90
2023-04-24T04:01:49.414Z,89.40
2023-04-24T04:04:16.439Z,89.50
2023-04-24T04:06:45.121Z,89.30
2023-04-24T04:09:12.160Z,89.30
2023-04-24T04:11:39.067Z,89.40
2023-04-24T04:14:06.364Z,89.00
2023-04-24T04:16:33.319Z,88.70
2023-04-24T04:19:00.338Z,88.80
2023-04-24T04:21:28.125Z,89.00
2023-04-24T04:23:54.936Z,88.80
2023-04-24T04:26:22.218Z,88.80
2023-04-24T04:28:50.036Z,89.00
2023-04-24T04:31:16.906Z,89.10
2023-04-24T04:33:43.705Z,89.20
2023-04-24T04:36:10.530Z,89.20
2023-04-24T04:38:38.020Z,89.40
2023-04-24T04:41:05.424Z,89.50
2023-04-24T04:43:33.627Z,89.60
2023-04-24T04:46:01.765Z,89.60
2023-04-24T04:48:29.673Z,89.60
2023-04-24T04:50:56.510Z,89.60
2023-04-24T04:53:23.288Z,89.60
2023-04-24T04:55:50.331Z,89.50
2023-04-24T04:58:17.231Z,89.40
2023-04-24T05:00:44.228Z,89.40
2023-04-24T05:03:20.773Z,89.50
2023-04-24T05:05:48.451Z,89.70
2023-04-24T05:10:45.022Z,89.70
2023-04-24T05:13:13.977Z,89.80
2023-04-24T05:15:41.078Z,90.00
2023-04-24T05:18:07.991Z,90.00
2023-04-24T05:20:34.930Z,90.10
2023-04-24T05:23:01.703Z,90.10
2023-04-24T05:25:28.531Z,90.20
2023-04-24T05:27:55.603Z,90.30
2023-04-24T05:30:22.482Z,90.40
2023-04-24T05:32:49.464Z,90.50
2023-04-24T05:35:16.369Z,90.50
2023-04-24T05:37:43.199Z,90.60
2023-04-24T05:40:10.603Z,90.60
2023-04-24T05:42:37.482Z,90.70
2023-04-24T05:45:05.183Z,90.80
2023-04-24T05:47:32.017Z,90.80
2023-04-24T05:49:58.826Z,90.80
2023-04-24T05:52:25.608Z,90.80
2023-04-24T05:54:52.378Z,90.60
2023-04-24T05:57:19.344Z,90.50
2023-04-24T05:59:46.497Z,90.40
2023-04-24T06:02:13.389Z,90.30
2023-04-24T06:04:41.170Z,90.20
2023-04-24T06:07:08.192Z,90.10
2023-04-24T06:09:34.954Z,89.80
2023-04-24T06:12:01.817Z,89.40
2023-04-24T06:14:28.576Z,89.00
2023-04-24T06:16:55.927Z,88.90
2023-04-24T06:19:22.797Z,88.90
2023-04-24T06:21:49.587Z,88.70
2023-04-24T06:24:17.668Z,88.50
2023-04-24T06:26:44.447Z,88.40
2023-04-24T06:29:11.274Z,88.70
2023-04-24T06:31:38.357Z,88.40
2023-04-24T06:34:05.271Z,87.70
2023-04-24T06:36:33.580Z,87.90
2023-04-24T06:39:00.388Z,87.90
2023-04-24T06:41:27.435Z,87.80
2023-04-24T06:43:54.250Z,87.80
2023-04-24T06:46:23.338Z,87.70
2023-04-24T06:48:50.852Z,87.80
2023-04-24T06:51:19.114Z,87.80
2023-04-24T06:53:47.599Z,87.90
2023-04-24T06:56:15.492Z,87.40
2023-04-24T06:58:42.817Z,87.60
2023-04-24T07:01:11.227Z,87.50
2023-04-24T07:03:38.239Z,87.60
2023-04-24T07:06:06.915Z,87.70
2023-04-24T07:08:34.220Z,87.90
2023-04-24T07:11:01.492Z,88.40
2023-04-24T07:13:28.362Z,86.80
2023-04-24T07:15:56.209Z,86.10
2023-04-24T07:18:23.846Z,86.40
2023-04-24T07:20:53.445Z,86.00
2023-04-24T07:23:21.111Z,86.10
2023-04-24T07:25:48.010Z,86.80
2023-04-24T07:28:14.875Z,86.20
2023-04-24T07:30:41.659Z,86.00
2023-04-24T07:33:08.692Z,85.90
2023-04-24T07:35:36.458Z,86.20
2023-04-24T07:38:03.282Z,86.30
2023-04-24T07:40:30.103Z,86.50
2023-04-24T07:42:56.861Z,86.10
2023-04-24T07:45:24.891Z,86.00
2023-04-24T07:47:52.055Z,86.10
2023-04-24T07:50:19.004Z,85.80
2023-04-24T07:52:45.908Z,84.90
2023-04-24T07:55:12.774Z,85.10
2023-04-24T07:57:39.668Z,85.20
2023-04-24T08:00:07.111Z,84.70
2023-04-24T08:02:34.141Z,84.90
2023-04-24T08:05:01.169Z,85.00
2023-04-24T08:07:28.006Z,84.70
2023-04-24T08:09:55.005Z,84.60
2023-04-24T08:12:21.879Z,85.00
2023-04-24T08:14:48.649Z,84.30
2023-04-24T08:17:15.804Z,83.90
2023-04-24T08:19:49.179Z,83.80
2023-04-24T08:22:16.745Z,84.20
2023-04-24T08:24:43.600Z,83.90
2023-04-24T08:27:11.397Z,84.10
2023-04-24T08:29:38.258Z,83.60
2023-04-24T08:32:05.078Z,84.10
2023-04-24T08:34:31.872Z,84.00
2023-04-24T08:36:58.768Z,84.40
2023-04-24T08:39:25.610Z,83.90
2023-04-24T08:41:53.987Z,83.50
2023-04-24T08:44:21.286Z,83.40
2023-04-24T08:46:49.922Z,83.00
2023-04-24T08:49:19.543Z,83.50
2023-04-24T08:51:48.138Z,82.40
2023-04-24T08:54:15.162Z,83.30
2023-04-24T08:56:45.906Z,83.70
2023-04-24T08:59:13.655Z,83.70
2023-04-24T09:01:42.118Z,83.70
2023-04-24T09:04:14.398Z,83.40
2023-04-24T09:06:41.505Z,84.10
2023-04-24T09:09:09.302Z,83.30
2023-04-24T09:11:38.214Z,83.60
2023-04-24T09:14:05.534Z,83.50
2023-04-24T09:16:36.488Z,83.80
2023-04-24T09:19:04.293Z,83.40
2023-04-24T09:21:36.140Z,82.90
2023-04-24T09:24:08.762Z,81.90
2023-04-24T09:26:38.733Z,82.00
2023-04-24T09:29:06.138Z,82.50
2023-04-24T09:31:33.101Z,83.00
2023-04-24T09:34:06.422Z,83.00
2023-04-24T09:36:39.422Z,82.60
2023-04-24T09:39:14.727Z,83.20
2023-04-24T09:42:03.400Z,83.70
2023-04-24T09:44:30.448Z,83.30
2023-04-24T09:46:59.375Z,83.60
2023-04-24T09:49:31.284Z,83.20
2023-04-24T09:52:06.208Z,83.60
2023-04-24T09:54:33.210Z,83.80
2023-04-24T09:57:01.475Z,82.70
2023-04-24T09:59:28.824Z,82.10
2023-04-24T10:01:56.159Z,80.70
2023-04-24T10:04:25.552Z,81.00
2023-04-24T10:06:54.172Z,81.60
2023-04-24T10:09:23.124Z,81.40
2023-04-24T10:11:52.936Z,79.80
2023-04-24T10:14:21.976Z,80.50
2023-04-24T10:16:50.144Z,80.90
2023-04-24T10:19:19.693Z,80.50
2023-04-24T10:21:49.810Z,81.00
2023-04-24T10:24:18.398Z,81.20
2023-04-24T10:26:46.894Z,80.20
2023-04-24T10:29:16.518Z,81.60
2023-04-24T10:31:46.615Z,81.60
2023-04-24T10:34:15.565Z,81.90
2023-04-24T10:36:57.805Z,79.30
2023-04-24T10:39:27.408Z,79.30
2023-04-24T10:41:58.486Z,80.70
2023-04-24T10:44:25.933Z,80.00
2023-04-24T10:46:57.417Z,80.10
2023-04-24T10:49:32.091Z,80.60
2023-04-24T10:52:06.380Z,80.30
2023-04-24T10:54:45.005Z,80.70
2023-04-24T10:57:21.255Z,80.50
2023-04-24T10:59:53.100Z,81.50
2023-04-24T11:02:41.399Z,81.30
2023-04-24T11:05:08.945Z,80.40
2023-04-24T11:08:13.190Z,81.70
2023-04-24T11:10:47.454Z,81.10
2023-04-24T11:13:18.400Z,80.40
2023-04-24T11:15:45.410Z,80.50
2023-04-24T11:18:16.986Z,80.80
2023-04-24T11:20:45.805Z,81.00
2023-04-24T11:23:14.151Z,81.70
2023-04-24T11:25:42.708Z,81.90
2023-04-24T11:28:17.332Z,82.00
2023-04-24T11:30:44.145Z,82.00
2023-04-24T11:33:10.998Z,81.40
2023-04-24T11:35:41.628Z,81.60
2023-04-24T11:38:23.351Z,81.60
2023-04-24T11:40:51.512Z,82.30
2023-04-24T11:43:20.366Z,82.50
2023-04-24T11:45:50.907Z,81.80
2023-04-24T11:48:23.459Z,82.00
2023-04-24T11:50:51.502Z,82.10
2023-04-24T11:53:21.737Z,81.60
2023-04-24T11:55:48.558Z,81.90
2023-04-24T11:58:15.337Z,81.30
2023-04-24T12:00:42.358Z,81.70
2023-04-24T12:03:11.233Z,81.80
2023-04-24T12:05:39.670Z,81.80
2023-04-24T12:08:07.407Z,81.20
2023-04-24T12:10:35.640Z,82.10
2023-04-24T12:13:02.700Z,82.50
2023-04-24T12:15:29.783Z,82.90
2023-04-24T12:17:57.671Z,83.10
2023-04-24T12:20:33.303Z,82.30
2023-04-24T12:23:03.453Z,82.90
2023-04-24T12:25:34.190Z,83.10
2023-04-24T12:28:04.099Z,84.00
2023-04-24T12:30:33.628Z,83.20
2023-04-24T12:33:01.864Z,83.60
2023-04-24T12:35:30.847Z,83.30
2023-04-24T12:38:07.521Z,82.20
2023-04-24T12:40:34.783Z,82.30
2023-04-24T12:43:01.619Z,82.80
2023-04-24T12:45:29.069Z,83.20
2023-04-24T12:47:56.255Z,83.20
2023-04-24T12:50:23.259Z,82.50
2023-04-24T12:52:50.004Z,82.60
2023-04-24T12:55:16.963Z,82.70
2023-04-24T12:57:43.798Z,82.20
2023-04-24T13:00:11.151Z,82.50
2023-04-24T13:02:38.447Z,82.30
2023-04-24T13:05:05.815Z,82.80
2023-04-24T13:07:34.227Z,81.80
2023-04-24T13:10:01.123Z,82.00
2023-04-24T13:12:28.089Z,82.10
2023-04-24T13:14:55.120Z,82.40
2023-04-24T13:17:23.238Z,82.40
2023-04-24T13:19:51.994Z,82.50
2023-04-24T13:22:22.077Z,82.40
2023-04-24T13:24:51.727Z,82.70
2023-04-24T13:27:19.197Z,83.00
2023-04-24T13:29:46.822Z,82.40
2023-04-24T13:32:13.853Z,82.80
2023-04-24T13:34:40.769Z,83.40
2023-04-24T13:37:13.792Z,83.70
2023-04-24T13:39:42.510Z,84.30
2023-04-24T13:42:09.985Z,84.30
2023-04-24T13:44:36.772Z,85.00
2023-04-24T13:47:03.687Z,84.80
2023-04-24T13:49:30.548Z,84.50
2023-04-24T13:51:57.658Z,84.90
2023-04-24T13:54:27.022Z,85.50
2023-04-24T13:56:54.397Z,85.80
2023-04-24T13:59:22.675Z,85.40
2023-04-24T14:01:49.783Z,85.60
2023-04-24T14:04:16.931Z,85.60
2023-04-24T14:06:44.909Z,85.90
2023-04-24T14:09:11.789Z,86.50
2023-04-24T14:11:38.891Z,87.90
2023-04-24T14:14:06.371Z,87.80
2023-04-24T14:16:33.432Z,89.30
2023-04-24T14:19:00.474Z,89.60
2023-04-24T14:21:27.844Z,90.20
2023-04-24T14:23:54.603Z,90.70
2023-04-24T14:26:21.636Z,91.00
2023-04-24T14:28:48.451Z,91.10
2023-04-24T14:31:15.367Z,91.40
2023-04-24T14:33:42.353Z,91.90
2023-04-24T14:36:09.279Z,91.20
2023-04-24T14:38:36.102Z,92.10
2023-04-24T14:41:10.582Z,91.80
2023-04-24T14:43:39.984Z,92.00
2023-04-24T14:46:06.953Z,92.70
2023-04-24T14:48:33.760Z,92.40
2023-04-24T14:51:00.630Z,92.90
2023-04-24T14:53:27.490Z,92.70
2023-04-24T14:55:55.026Z,93.00
2023-04-24T14:58:22.047Z,92.40
2023-04-24T15:00:52.792Z,92.60
2023-04-24T15:03:20.386Z,91.60
2023-04-24T15:05:47.573Z,91.30
2023-04-24T15:08:14.525Z,91.30
2023-04-24T15:10:41.352Z,91.20
2023-04-24T15:13:08.848Z,91.30
2023-04-24T15:15:35.774Z,91.00
2023-04-24T15:18:02.620Z,91.10
2023-04-24T15:20:29.578Z,91.90
2023-04-24T15:22:56.599Z,92.40
2023-04-24T15:25:23.506Z,92.30
2023-04-24T15:27:50.422Z,91.90
2023-04-24T15:30:17.389Z,92.60
2023-04-24T15:32:44.200Z,92.50
2023-04-24T15:35:11.796Z,92.60
2023-04-24T15:37:39.511Z,92.60
2023-04-24T15:40:08.571Z,93.70
2023-04-24T15:42:36.143Z,94.00
2023-04-24T15:45:04.384Z,93.60
2023-04-24T15:47:31.449Z,92.80
2023-04-24T15:49:58.779Z,92.70
2023-04-24T15:52:26.134Z,92.20
2023-04-24T15:54:52.982Z,92.20
2023-04-24T15:57:19.862Z,93.30
2023-04-24T15:59:46.783Z,93.30
2023-04-24T16:02:21.441Z,93.80
2023-04-24T16:04:49.822Z,93.90
2023-04-24T16:07:20.602Z,93.90
2023-04-24T16:09:47.461Z,94.00
2023-04-24T16:12:14.782Z,94.50
2023-04-24T16:14:42.233Z,94.10
2023-04-24T16:17:09.407Z,94.90
2023-04-24T16:19:36.267Z,94.10
2023-04-24T16:22:03.663Z,93.70
2023-04-24T16:24:31.056Z,94.40
2023-04-24T16:26:57.932Z,94.60
2023-04-24T16:29:24.928Z,94.50
2023-04-24T16:31:52.171Z,95.40
2023-04-24T16:34:19.490Z,95.80
2023-04-24T16:36:46.702Z,96.00
2023-04-24T16:39:13.750Z,96.20
2023-04-24T16:41:40.685Z,96.90
2023-04-24T16:44:07.634Z,97.90
2023-04-24T16:46:34.781Z,98.10
2023-04-24T16:49:01.808Z,99.10
2023-04-24T16:51:29.089Z,99.60
2023-04-24T16:53:56.155Z,99.60
2023-04-24T16:56:23.177Z,99.80
2023-04-24T16:58:50.477Z,99.60
2023-04-24T17:01:17.628Z,99.50
2023-04-24T17:03:45.026Z,98.90
2023-04-24T17:06:12.710Z,99.80
2023-04-24T17:08:39.816Z,98.30
2023-04-24T17:11:06.668Z,98.70
2023-04-24T17:13:33.717Z,97.90
2023-04-24T17:16:00.786Z,98.30
2023-04-24T17:18:27.648Z,98.70
2023-04-24T17:20:54.536Z,98.40
2023-04-24T17:23:21.521Z,97.60
2023-04-24T17:25:49.185Z,98.80
2023-04-24T17:28:34.686Z,99.00
2023-04-24T17:31:01.512Z,99.80
2023-04-24T17:33:30.906Z,99.30
2023-04-24T17:35:58.583Z,98.90
2023-04-24T17:38:25.759Z,97.50
2023-04-24T17:40:53.152Z,97.30
2023-04-24T17:43:20.894Z,97.10
2023-04-24T17:45:49.287Z,96.20
2023-04-24T17:48:16.675Z,96.40
2023-04-24T17:50:43.938Z,95.50
2023-04-24T17:53:11.164Z,95.20
2023-04-24T17:55:44.765Z,95.90
2023-04-24T17:58:12.100Z,95.10
2023-04-24T18:00:39.617Z,94.80
2023-04-24T18:03:08.173Z,95.00
2023-04-24T18:05:36.718Z,95.10
2023-04-24T18:08:04.341Z,95.50
2023-04-24T18:10:32.815Z,95.50
2023-04-24T18:12:59.931Z,96.30
2023-04-24T18:15:27.068Z,95.90
2023-04-24T18:17:54.176Z,95.40
2023-04-24T18:20:21.319Z,95.70
2023-04-24T18:22:48.472Z,95.50
2023-04-24T18:25:15.706Z,95.40
2023-04-24T18:27:42.836Z,95.60
2023-04-24T18:30:14.252Z,95.50
2023-04-24T18:32:42.182Z,94.90
2023-04-24T18:35:09.979Z,94.30
2023-04-24T18:37:36.782Z,94.90
2023-04-24T18:40:03.967Z,95.00
2023-04-24T18:42:30.934Z,95.10
2023-04-24T18:45:01.713Z,94.90
2023-04-24T18:47:29.290Z,94.40
2023-04-24T18:49:56.388Z,94.50
2023-04-24T18:52:24.533Z,94.10
2023-04-24T18:54:51.616Z,93.70
2023-04-24T18:57:18.469Z,94.20
2023-04-24T18:59:45.361Z,94.20
2023-04-24T19:02:52.911Z,94.50
2023-04-24T19:05:19.790Z,94.80
2023-04-24T19:07:46.582Z,95.30
2023-04-24T19:10:13.664Z,95.40
2023-04-24T19:12:40.647Z,95.10
2023-04-24T19:15:11.828Z,94.40
2023-04-24T19:17:39.088Z,93.90
2023-04-24T19:20:06.855Z,93.90
2023-04-24T19:22:34.640Z,94.10
2023-04-24T19:25:01.849Z,93.60
2023-04-24T19:27:28.636Z,93.00
2023-04-24T19:29:55.473Z,93.00
2023-04-24T19:32:22.436Z,93.10
2023-04-24T19:34:49.411Z,92.80
2023-04-24T19:37:16.442Z,93.00
2023-04-24T19:39:43.299Z,92.80
2023-04-24T19:42:10.360Z,92.60
2023-04-24T19:44:37.397Z,92.90
2023-04-24T19:47:04.322Z,93.00
2023-04-24T19:49:31.302Z,92.60
2023-04-24T19:51:58.271Z,92.60
2023-04-24T19:54:25.752Z,92.60
2023-04-24T19:56:53.014Z,92.20
2023-04-24T19:59:19.802Z,92.60
2023-04-24T20:01:47.003Z,92.50
2023-04-24T20:04:14.290Z,92.40
2023-04-24T20:06:41.291Z,92.20
2023-04-24T20:09:08.112Z,92.50
2023-04-24T20:11:35.033Z,92.40
2023-04-24T20:14:03.726Z,92.10
2023-04-24T20:16:31.289Z,92.40
2023-04-24T20:18:58.820Z,92.70
2023-04-24T20:21:28.882Z,92.70
2023-04-24T20:23:56.155Z,92.80
2023-04-24T20:26:23.581Z,92.30
2023-04-24T20:28:50.802Z,92.10
2023-04-24T20:31:18.070Z,92.20
2023-04-24T20:33:45.623Z,92.20
2023-04-24T20:36:12.513Z,92.00
2023-04-24T20:38:39.390Z,92.30
2023-04-24T20:41:08.399Z,91.80
2023-04-24T20:43:35.487Z,92.20
2023-04-24T20:46:02.733Z,91.60
2023-04-24T20:48:29.621Z,91.30
2023-04-24T20:50:56.627Z,91.40
2023-04-24T20:53:23.625Z,91.80
2023-04-24T20:55:50.798Z,91.60
2023-04-24T20:58:24.576Z,91.80
2023-04-24T21:00:52.100Z,91.80
2023-04-24T21:03:19.705Z,91.50
2023-04-24T21:05:47.085Z,91.80
2023-04-24T21:08:14.075Z,91.70
2023-04-24T21:10:41.028Z,91.60
2023-04-24T21:13:08.049Z,91.60
2023-04-24T21:15:35.219Z,91.60
2023-04-24T21:18:02.711Z,91.70
2023-04-24T21:20:29.791Z,91.60
2023-04-24T21:22:56.631Z,91.30
2023-04-24T21:25:23.448Z,91.20
2023-04-24T21:27:50.495Z,91.50
2023-04-24T21:30:17.338Z,91.50
2023-04-24T21:32:44.548Z,91.20
2023-04-24T21:35:11.442Z,91.20
2023-04-24T21:37:39.789Z,91.10
2023-04-24T21:40:08.037Z,91.10
2023-04-24T21:42:34.946Z,91.20
2023-04-24T21:45:01.748Z,91.30
2023-04-24T21:47:28.598Z,91.30
2023-04-24T21:49:55.413Z,91.10
2023-04-24T21:52:22.557Z,91.30
2023-04-24T21:54:49.443Z,91.50
2023-04-24T21:57:16.458Z,91.10
2023-04-24T21:59:43.600Z,91.50
2023-04-24T22:02:10.690Z,91.30
2023-04-24T22:04:37.898Z,91.60
2023-04-24T22:07:05.018Z,91.00
2023-04-24T22:09:31.867Z,91.10
2023-04-24T22:11:58.711Z,91.50
2023-04-24T22:14:25.537Z,91.20
2023-04-24T22:16:53.952Z,91.10
2023-04-24T22:19:20.768Z,91.20
2023-04-24T22:21:47.662Z,91.10
2023-04-24T22:24:14.641Z,91.10
2023-04-24T22:26:41.556Z,91.10
2023-04-24T22:29:08.308Z,91.30
2023-04-24T22:31:35.194Z,91.00
2023-04-24T22:34:02.048Z,91.40
2023-04-24T22:36:28.878Z,91.40
2023-04-24T22:38:55.845Z,91.50
2023-04-24T22:41:22.719Z,91.40
2023-04-24T22:43:50.289Z,91.40
2023-04-24T22:46:17.897Z,91.50
2023-04-24T22:48:45.622Z,91.20
2023-04-24T22:51:12.519Z,91.40
2023-04-24T22:53:39.325Z,91.20
2023-04-24T22:56:06.637Z,91.30
2023-04-24T22:58:33.553Z,91.30
2023-04-24T23:01:00.407Z,91.30
2023-04-24T23:03:27.464Z,91.50
2023-04-24T23:05:54.392Z,91.60
2023-04-24T23:08:21.226Z,91.70
2023-04-24T23:10:48.114Z,91.60
2023-04-24T23:13:14.951Z,91.80
2023-04-24T23:15:42.157Z,91.80
2023-04-24T23:18:08.928Z,91.90
2023-04-24T23:20:35.800Z,92.10
2023-04-24T23:23:02.605Z,92.20
2023-04-24T23:25:29.413Z,92.30
2023-04-24T23:27:56.647Z,92.50
2023-04-24T23:30:23.548Z,92.60
2023-04-24T23:32:50.471Z,92.70
2023-04-24T23:35:17.269Z,92.70
2023-04-24T23:37:44.142Z,92.90
2023-04-24T23:40:11.137Z,92.80
2023-04-24T23:42:38.212Z,92.90
2023-04-24T23:45:05.673Z,92.90
2023-04-24T23:47:32.473Z,92.70
2023-04-24T23:49:59.306Z,93.00
2023-04-24T23:52:26.224Z,93.10
2023-04-24T23:54:53.166Z,92.90
2023-04-24T23:57:19.959Z,92.80
2023-04-24T23:59:46.757Z,92.90
